sensor_id;sensor_type;location;lat;lon;timestamp;P1;durP1;ratioP1;P2;durP2;ratioP2
51286;SDS011;37364;46.974;18.916;2023-06-14T00:01:28;1474.85;;;970.83;;
51286;SDS011;37364;46.974;18.916;2023-06-14T00:04:02;1385.65;;;921.20;;
51286;SDS011;37364;46.974;18.916;2023-06-14T00:06:37;1652.95;;;958.60;;
51286;SDS011;37364;46.974;18.916;2023-06-14T00:09:16;1286.25;;;960.00;;
51286;SDS011;37364;46.974;18.916;2023-06-14T00:11:49;1352.43;;;973.65;;
51286;SDS011;37364;46.974;18.916;2023-06-14T00:14:26;1375.50;;;999.90;;
51286;SDS011;37364;46.974;18.916;2023-06-14T00:17:01;1256.57;;;945.03;;
51286;SDS011;37364;46.974;18.916;2023-06-14T00:19:35;1239.20;;;887.00;;
51286;SDS011;37364;46.974;18.916;2023-06-14T00:24:41;1139.10;;;854.08;;
51286;SDS011;37364;46.974;18.916;2023-06-14T00:27:12;1583.20;;;907.13;;
51286;SDS011;37364;46.974;18.916;2023-06-14T00:29:45;1244.78;;;860.80;;
51286;SDS011;37364;46.974;18.916;2023-06-14T00:32:20;1999.90;;;999.90;;
51286;SDS011;37364;46.974;18.916;2023-06-14T00:34:55;1548.03;;;893.63;;
51286;SDS011;37364;46.974;18.916;2023-06-14T00:37:29;1130.72;;;789.65;;
51286;SDS011;37364;46.974;18.916;2023-06-14T00:40:02;1999.90;;;999.90;;
51286;SDS011;37364;46.974;18.916;2023-06-14T00:42:34;1069.65;;;717.58;;
51286;SDS011;37364;46.974;18.916;2023-06-14T00:45:09;1999.90;;;999.90;;
51286;SDS011;37364;46.974;18.916;2023-06-14T00:47:49;1573.88;;;891.97;;
51286;SDS011;37364;46.974;18.916;2023-06-14T00:52:56;1467.78;;;830.38;;
51286;SDS011;37364;46.974;18.916;2023-06-14T00:55:27;1999.90;;;999.90;;
51286;SDS011;37364;46.974;18.916;2023-06-14T00:57:59;1027.57;;;690.17;;
51286;SDS011;37364;46.974;18.916;2023-06-14T01:00:36;1141.63;;;816.83;;
51286;SDS011;37364;46.974;18.916;2023-06-14T01:03:09;1556.22;;;885.03;;
51286;SDS011;37364;46.974;18.916;2023-06-14T01:05:40;1219.65;;;853.55;;
51286;SDS011;37364;46.974;18.916;2023-06-14T01:08:21;1603.43;;;946.17;;
51286;SDS011;37364;46.974;18.916;2023-06-14T01:11:05;1286.10;;;957.08;;
51286;SDS011;37364;46.974;18.916;2023-06-14T01:13:45;1310.65;;;977.50;;
51286;SDS011;37364;46.974;18.916;2023-06-14T01:16:24;1316.20;;;999.85;;
51286;SDS011;37364;46.974;18.916;2023-06-14T01:18:56;1342.97;;;999.90;;
51286;SDS011;37364;46.974;18.916;2023-06-14T01:21:32;1311.25;;;999.90;;
51286;SDS011;37364;46.974;18.916;2023-06-14T01:24:11;1346.30;;;994.00;;
51286;SDS011;37364;46.974;18.916;2023-06-14T01:26:41;1437.60;;;945.13;;
51286;SDS011;37364;46.974;18.916;2023-06-14T01:29:18;1268.20;;;935.40;;
51286;SDS011;37364;46.974;18.916;2023-06-14T01:31:49;1206.88;;;795.90;;
51286;SDS011;37364;46.974;18.916;2023-06-14T01:34:20;1571.05;;;874.42;;
51286;SDS011;37364;46.974;18.916;2023-06-14T01:36:53;1437.50;;;767.45;;
51286;SDS011;37364;46.974;18.916;2023-06-14T01:39:32;1999.90;;;999.90;;
51286;SDS011;37364;46.974;18.916;2023-06-14T01:42:05;1999.90;;;999.90;;
51286;SDS011;37364;46.974;18.916;2023-06-14T01:44:40;1999.90;;;999.90;;
51286;SDS011;37364;46.974;18.916;2023-06-14T01:47:12;1999.90;;;999.90;;
51286;SDS011;37364;46.974;18.916;2023-06-14T01:49:47;1999.90;;;999.90;;
51286;SDS011;37364;46.974;18.916;2023-06-14T01:52:19;1999.90;;;999.90;;
51286;SDS011;37364;46.974;18.916;2023-06-14T01:54:56;1999.90;;;999.90;;
51286;SDS011;37364;46.974;18.916;2023-06-14T01:57:29;1999.90;;;999.90;;
51286;SDS011;37364;46.974;18.916;2023-06-14T02:00:00;1999.90;;;999.90;;
51286;SDS011;37364;46.974;18.916;2023-06-14T02:02:38;1999.90;;;999.90;;
51286;SDS011;37364;46.974;18.916;2023-06-14T02:05:09;1999.90;;;999.90;;
51286;SDS011;37364;46.974;18.916;2023-06-14T02:07:43;1999.90;;;999.90;;
51286;SDS011;37364;46.974;18.916;2023-06-14T02:10:20;1999.90;;;999.90;;
51286;SDS011;37364;46.974;18.916;2023-06-14T02:12:50;1999.90;;;999.90;;
51286;SDS011;37364;46.974;18.916;2023-06-14T02:15:23;1999.90;;;999.90;;
51286;SDS011;37364;46.974;18.916;2023-06-14T02:18:04;1999.90;;;999.90;;
51286;SDS011;37364;46.974;18.916;2023-06-14T02:20:35;1999.90;;;999.90;;
51286;SDS011;37364;46.974;18.916;2023-06-14T02:23:08;1999.90;;;999.90;;
51286;SDS011;37364;46.974;18.916;2023-06-14T02:25:42;1999.90;;;999.90;;
51286;SDS011;37364;46.974;18.916;2023-06-14T02:28:13;1999.90;;;999.90;;
51286;SDS011;37364;46.974;18.916;2023-06-14T02:30:43;1999.90;;;999.90;;
51286;SDS011;37364;46.974;18.916;2023-06-14T02:33:14;1999.90;;;999.90;;
51286;SDS011;37364;46.974;18.916;2023-06-14T02:35:46;1999.90;;;999.90;;
51286;SDS011;37364;46.974;18.916;2023-06-14T02:38:16;1999.90;;;999.90;;
51286;SDS011;37364;46.974;18.916;2023-06-14T02:40:50;1999.90;;;999.90;;
51286;SDS011;37364;46.974;18.916;2023-06-14T02:43:20;1999.90;;;999.90;;
51286;SDS011;37364;46.974;18.916;2023-06-14T02:45:53;1999.90;;;999.90;;
51286;SDS011;37364;46.974;18.916;2023-06-14T02:48:26;1999.90;;;999.90;;
51286;SDS011;37364;46.974;18.916;2023-06-14T02:50:57;1999.90;;;999.90;;
51286;SDS011;37364;46.974;18.916;2023-06-14T02:53:30;1999.90;;;999.90;;
51286;SDS011;37364;46.974;18.916;2023-06-14T02:56:09;1999.90;;;999.90;;
51286;SDS011;37364;46.974;18.916;2023-06-14T02:58:47;1999.90;;;999.90;;
51286;SDS011;37364;46.974;18.916;2023-06-14T03:01:18;1999.90;;;999.90;;
51286;SDS011;37364;46.974;18.916;2023-06-14T03:03:52;1999.90;;;999.90;;
51286;SDS011;37364;46.974;18.916;2023-06-14T03:06:27;1999.90;;;999.90;;
51286;SDS011;37364;46.974;18.916;2023-06-14T03:09:00;1999.90;;;999.90;;
51286;SDS011;37364;46.974;18.916;2023-06-14T03:11:41;1999.90;;;999.90;;
51286;SDS011;37364;46.974;18.916;2023-06-14T03:14:13;1999.90;;;999.90;;
51286;SDS011;37364;46.974;18.916;2023-06-14T03:16:49;1999.90;;;999.90;;
51286;SDS011;37364;46.974;18.916;2023-06-14T03:19:24;1999.90;;;999.90;;
51286;SDS011;37364;46.974;18.916;2023-06-14T03:22:01;1999.90;;;999.90;;
51286;SDS011;37364;46.974;18.916;2023-06-14T03:24:36;1999.90;;;999.90;;
51286;SDS011;37364;46.974;18.916;2023-06-14T03:27:17;1999.90;;;999.90;;
51286;SDS011;37364;46.974;18.916;2023-06-14T03:29:50;1999.90;;;999.90;;
51286;SDS011;37364;46.974;18.916;2023-06-14T03:32:22;1999.90;;;999.90;;
51286;SDS011;37364;46.974;18.916;2023-06-14T03:34:52;1999.90;;;999.90;;
51286;SDS011;37364;46.974;18.916;2023-06-14T03:37:25;1999.90;;;999.90;;
51286;SDS011;37364;46.974;18.916;2023-06-14T03:39:55;1999.90;;;999.90;;
51286;SDS011;37364;46.974;18.916;2023-06-14T03:42:35;1999.90;;;999.90;;
51286;SDS011;37364;46.974;18.916;2023-06-14T03:45:07;1999.90;;;999.90;;
51286;SDS011;37364;46.974;18.916;2023-06-14T03:47:38;1999.90;;;999.90;;
51286;SDS011;37364;46.974;18.916;2023-06-14T03:50:09;1999.90;;;999.90;;
51286;SDS011;37364;46.974;18.916;2023-06-14T03:52:44;1999.90;;;999.90;;
51286;SDS011;37364;46.974;18.916;2023-06-14T03:55:18;1999.90;;;999.90;;
51286;SDS011;37364;46.974;18.916;2023-06-14T03:57:59;1999.90;;;999.90;;
51286;SDS011;37364;46.974;18.916;2023-06-14T04:00:31;1999.90;;;999.90;;
51286;SDS011;37364;46.974;18.916;2023-06-14T04:03:05;1999.90;;;999.90;;
51286;SDS011;37364;46.974;18.916;2023-06-14T04:05:36;1999.90;;;999.90;;
51286;SDS011;37364;46.974;18.916;2023-06-14T04:08:12;1999.90;;;999.90;;
51286;SDS011;37364;46.974;18.916;2023-06-14T04:10:49;1999.90;;;999.90;;
51286;SDS011;37364;46.974;18.916;2023-06-14T04:13:22;1999.90;;;999.90;;
51286;SDS011;37364;46.974;18.916;2023-06-14T04:15:53;1999.90;;;999.90;;
51286;SDS011;37364;46.974;18.916;2023-06-14T04:18:32;1999.90;;;999.90;;
51286;SDS011;37364;46.974;18.916;2023-06-14T04:21:07;1999.90;;;999.90;;
51286;SDS011;37364;46.974;18.916;2023-06-14T04:23:48;1999.90;;;999.90;;
51286;SDS011;37364;46.974;18.916;2023-06-14T04:26:23;1999.90;;;999.90;;
51286;SDS011;37364;46.974;18.916;2023-06-14T04:29:00;1999.90;;;999.90;;
51286;SDS011;37364;46.974;18.916;2023-06-14T04:31:42;1999.90;;;999.90;;
51286;SDS011;37364;46.974;18.916;2023-06-14T04:36:53;1999.90;;;999.90;;
51286;SDS011;37364;46.974;18.916;2023-06-14T04:39:30;1999.90;;;999.90;;
51286;SDS011;37364;46.974;18.916;2023-06-14T04:42:09;1999.90;;;999.90;;
51286;SDS011;37364;46.974;18.916;2023-06-14T04:44:47;1999.90;;;999.90;;
51286;SDS011;37364;46.974;18.916;2023-06-14T04:47:18;1999.90;;;999.90;;
51286;SDS011;37364;46.974;18.916;2023-06-14T04:49:51;1999.90;;;999.90;;
51286;SDS011;37364;46.974;18.916;2023-06-14T04:52:24;1999.90;;;999.90;;
51286;SDS011;37364;46.974;18.916;2023-06-14T04:55:00;1999.90;;;999.90;;
51286;SDS011;37364;46.974;18.916;2023-06-14T04:57:42;1999.90;;;999.90;;
51286;SDS011;37364;46.974;18.916;2023-06-14T05:00:16;1999.90;;;999.90;;
51286;SDS011;37364;46.974;18.916;2023-06-14T05:02:59;1999.90;;;999.90;;
51286;SDS011;37364;46.974;18.916;2023-06-14T05:05:30;1999.90;;;999.90;;
51286;SDS011;37364;46.974;18.916;2023-06-14T05:08:01;1999.90;;;999.90;;
51286;SDS011;37364;46.974;18.916;2023-06-14T05:10:31;1999.90;;;999.90;;
51286;SDS011;37364;46.974;18.916;2023-06-14T05:13:08;1999.90;;;999.90;;
51286;SDS011;37364;46.974;18.916;2023-06-14T05:15:46;1999.90;;;999.90;;
51286;SDS011;37364;46.974;18.916;2023-06-14T05:18:17;1999.90;;;999.90;;
51286;SDS011;37364;46.974;18.916;2023-06-14T05:20:52;105.30;;;51.63;;
51286;SDS011;37364;46.974;18.916;2023-06-14T05:23:22;1999.90;;;999.90;;
51286;SDS011;37364;46.974;18.916;2023-06-14T05:25:55;1999.90;;;999.90;;
51286;SDS011;37364;46.974;18.916;2023-06-14T05:28:26;1999.90;;;999.90;;
51286;SDS011;37364;46.974;18.916;2023-06-14T05:31:02;1999.90;;;999.90;;
51286;SDS011;37364;46.974;18.916;2023-06-14T05:36:04;945.08;;;520.20;;
51286;SDS011;37364;46.974;18.916;2023-06-14T05:38:38;1420.90;;;792.42;;
51286;SDS011;37364;46.974;18.916;2023-06-14T05:41:12;1061.07;;;794.30;;
51286;SDS011;37364;46.974;18.916;2023-06-14T05:43:46;1113.43;;;914.90;;
51286;SDS011;37364;46.974;18.916;2023-06-14T05:46:19;1144.32;;;937.58;;
51286;SDS011;37364;46.974;18.916;2023-06-14T05:48:52;1165.10;;;999.90;;
51286;SDS011;37364;46.974;18.916;2023-06-14T05:51:23;1126.78;;;998.35;;
51286;SDS011;37364;46.974;18.916;2023-06-14T05:53:54;1098.35;;;982.42;;
51286;SDS011;37364;46.974;18.916;2023-06-14T05:56:24;1100.28;;;986.60;;
51286;SDS011;37364;46.974;18.916;2023-06-14T05:58:55;1085.38;;;965.95;;
51286;SDS011;37364;46.974;18.916;2023-06-14T06:01:28;1020.92;;;909.60;;
51286;SDS011;37364;46.974;18.916;2023-06-14T06:04:00;986.72;;;885.08;;
51286;SDS011;37364;46.974;18.916;2023-06-14T06:06:31;1042.28;;;931.25;;
51286;SDS011;37364;46.974;18.916;2023-06-14T06:09:02;1096.90;;;946.72;;
51286;SDS011;37364;46.974;18.916;2023-06-14T06:11:33;1152.95;;;969.42;;
51286;SDS011;37364;46.974;18.916;2023-06-14T06:14:18;1225.82;;;996.67;;
51286;SDS011;37364;46.974;18.916;2023-06-14T06:16:59;1293.95;;;999.90;;
51286;SDS011;37364;46.974;18.916;2023-06-14T06:19:29;1280.82;;;999.65;;
51286;SDS011;37364;46.974;18.916;2023-06-14T06:21:59;1374.28;;;999.90;;
51286;SDS011;37364;46.974;18.916;2023-06-14T06:24:31;1458.57;;;999.90;;
51286;SDS011;37364;46.974;18.916;2023-06-14T06:27:02;1476.43;;;999.90;;
51286;SDS011;37364;46.974;18.916;2023-06-14T06:29:34;1509.00;;;999.90;;
51286;SDS011;37364;46.974;18.916;2023-06-14T06:32:11;1511.72;;;999.90;;
51286;SDS011;37364;46.974;18.916;2023-06-14T06:34:41;1357.90;;;996.28;;
51286;SDS011;37364;46.974;18.916;2023-06-14T06:37:11;1474.60;;;999.90;;
51286;SDS011;37364;46.974;18.916;2023-06-14T06:39:42;1532.13;;;999.90;;
51286;SDS011;37364;46.974;18.916;2023-06-14T06:42:15;1555.57;;;999.90;;
51286;SDS011;37364;46.974;18.916;2023-06-14T06:44:49;1428.85;;;982.65;;
51286;SDS011;37364;46.974;18.916;2023-06-14T06:47:21;1711.45;;;992.83;;
51286;SDS011;37364;46.974;18.916;2023-06-14T06:49:52;1371.57;;;987.03;;
51286;SDS011;37364;46.974;18.916;2023-06-14T06:52:22;1417.50;;;999.90;;
51286;SDS011;37364;46.974;18.916;2023-06-14T06:54:52;1248.20;;;888.25;;
51286;SDS011;37364;46.974;18.916;2023-06-14T06:57:24;1205.93;;;913.42;;
51286;SDS011;37364;46.974;18.916;2023-06-14T06:59:56;1282.00;;;906.70;;
51286;SDS011;37364;46.974;18.916;2023-06-14T07:02:30;1177.07;;;843.25;;
51286;SDS011;37364;46.974;18.916;2023-06-14T07:05:00;1999.90;;;999.90;;
51286;SDS011;37364;46.974;18.916;2023-06-14T07:07:31;1999.90;;;999.90;;
51286;SDS011;37364;46.974;18.916;2023-06-14T07:10:02;1999.90;;;999.90;;
51286;SDS011;37364;46.974;18.916;2023-06-14T07:12:33;1999.90;;;999.90;;
51286;SDS011;37364;46.974;18.916;2023-06-14T07:15:07;1999.90;;;999.90;;
51286;SDS011;37364;46.974;18.916;2023-06-14T07:17:41;1999.90;;;999.90;;
51286;SDS011;37364;46.974;18.916;2023-06-14T07:20:14;1999.90;;;999.90;;
51286;SDS011;37364;46.974;18.916;2023-06-14T07:22:49;1999.90;;;999.90;;
51286;SDS011;37364;46.974;18.916;2023-06-14T07:25:19;1999.90;;;999.90;;
51286;SDS011;37364;46.974;18.916;2023-06-14T07:27:49;1999.90;;;999.90;;
51286;SDS011;37364;46.974;18.916;2023-06-14T07:30:21;1999.90;;;999.90;;
51286;SDS011;37364;46.974;18.916;2023-06-14T07:32:58;1999.90;;;999.90;;
51286;SDS011;37364;46.974;18.916;2023-06-14T07:35:29;1999.90;;;999.90;;
51286;SDS011;37364;46.974;18.916;2023-06-14T07:38:04;1999.90;;;999.90;;
51286;SDS011;37364;46.974;18.916;2023-06-14T07:40:35;1999.90;;;999.90;;
51286;SDS011;37364;46.974;18.916;2023-06-14T07:43:06;1999.90;;;999.90;;
51286;SDS011;37364;46.974;18.916;2023-06-14T07:45:36;1999.90;;;999.90;;
51286;SDS011;37364;46.974;18.916;2023-06-14T07:48:19;1999.90;;;999.90;;
51286;SDS011;37364;46.974;18.916;2023-06-14T07:50:55;1999.90;;;999.90;;
51286;SDS011;37364;46.974;18.916;2023-06-14T07:53:25;1999.90;;;999.90;;
51286;SDS011;37364;46.974;18.916;2023-06-14T07:55:57;1999.90;;;999.90;;
51286;SDS011;37364;46.974;18.916;2023-06-14T07:58:28;1999.90;;;999.90;;
51286;SDS011;37364;46.974;18.916;2023-06-14T08:01:00;1999.90;;;999.90;;
51286;SDS011;37364;46.974;18.916;2023-06-14T08:03:38;1999.90;;;999.90;;
51286;SDS011;37364;46.974;18.916;2023-06-14T08:06:11;1999.90;;;999.90;;
51286;SDS011;37364;46.974;18.916;2023-06-14T08:08:44;1999.90;;;999.90;;
51286;SDS011;37364;46.974;18.916;2023-06-14T08:11:16;1999.90;;;999.90;;
51286;SDS011;37364;46.974;18.916;2023-06-14T08:13:49;1999.90;;;999.90;;
51286;SDS011;37364;46.974;18.916;2023-06-14T08:16:22;1999.90;;;999.90;;
51286;SDS011;37364;46.974;18.916;2023-06-14T08:19:01;1999.90;;;999.90;;
51286;SDS011;37364;46.974;18.916;2023-06-14T08:21:31;1999.90;;;999.90;;
51286;SDS011;37364;46.974;18.916;2023-06-14T08:24:05;1999.90;;;999.90;;
51286;SDS011;37364;46.974;18.916;2023-06-14T08:26:40;1999.90;;;999.90;;
51286;SDS011;37364;46.974;18.916;2023-06-14T08:29:11;1999.90;;;999.90;;
51286;SDS011;37364;46.974;18.916;2023-06-14T08:31:43;1999.90;;;999.90;;
51286;SDS011;37364;46.974;18.916;2023-06-14T08:34:22;1999.90;;;999.90;;
51286;SDS011;37364;46.974;18.916;2023-06-14T08:36:58;1999.90;;;999.90;;
51286;SDS011;37364;46.974;18.916;2023-06-14T08:39:28;1999.90;;;999.90;;
51286;SDS011;37364;46.974;18.916;2023-06-14T08:41:58;1999.90;;;999.90;;
51286;SDS011;37364;46.974;18.916;2023-06-14T08:44:40;1999.90;;;999.90;;
51286;SDS011;37364;46.974;18.916;2023-06-14T08:49:51;1999.90;;;999.90;;
51286;SDS011;37364;46.974;18.916;2023-06-14T08:52:25;1999.90;;;999.90;;
51286;SDS011;37364;46.974;18.916;2023-06-14T08:55:00;1999.90;;;999.90;;
51286;SDS011;37364;46.974;18.916;2023-06-14T08:57:30;1999.90;;;999.90;;
51286;SDS011;37364;46.974;18.916;2023-06-14T09:00:05;1999.90;;;999.90;;
51286;SDS011;37364;46.974;18.916;2023-06-14T09:02:39;1999.90;;;999.90;;
51286;SDS011;37364;46.974;18.916;2023-06-14T09:05:13;1999.90;;;999.90;;
51286;SDS011;37364;46.974;18.916;2023-06-14T09:07:45;1999.90;;;999.90;;
51286;SDS011;37364;46.974;18.916;2023-06-14T09:10:17;1999.90;;;999.90;;
51286;SDS011;37364;46.974;18.916;2023-06-14T09:12:54;1999.90;;;999.90;;
51286;SDS011;37364;46.974;18.916;2023-06-14T09:15:31;1999.90;;;999.90;;
51286;SDS011;37364;46.974;18.916;2023-06-14T09:18:07;1999.90;;;999.90;;
51286;SDS011;37364;46.974;18.916;2023-06-14T09:20:43;1999.90;;;999.90;;
51286;SDS011;37364;46.974;18.916;2023-06-14T09:23:22;1999.90;;;999.90;;
51286;SDS011;37364;46.974;18.916;2023-06-14T09:25:53;1999.90;;;999.90;;
51286;SDS011;37364;46.974;18.916;2023-06-14T09:28:26;1999.90;;;999.90;;
51286;SDS011;37364;46.974;18.916;2023-06-14T09:30:59;1999.90;;;999.90;;
51286;SDS011;37364;46.974;18.916;2023-06-14T09:33:30;1999.90;;;999.90;;
51286;SDS011;37364;46.974;18.916;2023-06-14T09:36:11;1999.90;;;999.90;;
51286;SDS011;37364;46.974;18.916;2023-06-14T09:38:55;1999.90;;;999.90;;
51286;SDS011;37364;46.974;18.916;2023-06-14T09:41:30;1999.90;;;999.90;;
51286;SDS011;37364;46.974;18.916;2023-06-14T09:44:03;1999.90;;;999.90;;
51286;SDS011;37364;46.974;18.916;2023-06-14T09:46:42;1999.90;;;999.90;;
51286;SDS011;37364;46.974;18.916;2023-06-14T09:49:13;1999.90;;;999.90;;
51286;SDS011;37364;46.974;18.916;2023-06-14T09:51:46;1999.90;;;999.90;;
51286;SDS011;37364;46.974;18.916;2023-06-14T09:54:21;1999.90;;;999.90;;
51286;SDS011;37364;46.974;18.916;2023-06-14T09:56:52;1999.90;;;999.90;;
51286;SDS011;37364;46.974;18.916;2023-06-14T09:59:31;1999.90;;;999.90;;
51286;SDS011;37364;46.974;18.916;2023-06-14T10:02:06;1999.90;;;999.90;;
51286;SDS011;37364;46.974;18.916;2023-06-14T10:04:43;1999.90;;;999.90;;
51286;SDS011;37364;46.974;18.916;2023-06-14T10:07:23;1999.90;;;999.90;;
51286;SDS011;37364;46.974;18.916;2023-06-14T10:10:00;1999.90;;;999.90;;
51286;SDS011;37364;46.974;18.916;2023-06-14T10:12:34;1999.90;;;999.90;;
51286;SDS011;37364;46.974;18.916;2023-06-14T10:15:07;1999.90;;;999.90;;
51286;SDS011;37364;46.974;18.916;2023-06-14T10:17:49;1999.90;;;999.90;;
51286;SDS011;37364;46.974;18.916;2023-06-14T10:20:28;1999.90;;;999.90;;
51286;SDS011;37364;46.974;18.916;2023-06-14T10:23:12;1999.90;;;999.90;;
51286;SDS011;37364;46.974;18.916;2023-06-14T10:25:52;1999.90;;;999.90;;
51286;SDS011;37364;46.974;18.916;2023-06-14T10:28:29;1999.90;;;999.90;;
51286;SDS011;37364;46.974;18.916;2023-06-14T10:33:39;1999.90;;;999.90;;
51286;SDS011;37364;46.974;18.916;2023-06-14T10:36:30;1999.90;;;999.90;;
51286;SDS011;37364;46.974;18.916;2023-06-14T10:39:08;1999.90;;;999.90;;
51286;SDS011;37364;46.974;18.916;2023-06-14T10:41:50;1999.90;;;999.90;;
51286;SDS011;37364;46.974;18.916;2023-06-14T10:47:29;1999.90;;;999.90;;
51286;SDS011;37364;46.974;18.916;2023-06-14T10:50:05;1999.90;;;999.90;;
51286;SDS011;37364;46.974;18.916;2023-06-14T10:52:38;1999.90;;;999.90;;
51286;SDS011;37364;46.974;18.916;2023-06-14T10:55:15;1999.90;;;999.90;;
51286;SDS011;37364;46.974;18.916;2023-06-14T10:57:50;1999.90;;;999.90;;
51286;SDS011;37364;46.974;18.916;2023-06-14T11:00:23;1999.90;;;999.90;;
51286;SDS011;37364;46.974;18.916;2023-06-14T11:03:03;1999.90;;;999.90;;
51286;SDS011;37364;46.974;18.916;2023-06-14T11:06:01;1999.90;;;999.90;;
51286;SDS011;37364;46.974;18.916;2023-06-14T11:09:04;1999.90;;;999.90;;
51286;SDS011;37364;46.974;18.916;2023-06-14T11:11:52;1999.90;;;999.90;;
51286;SDS011;37364;46.974;18.916;2023-06-14T11:14:29;1999.90;;;999.90;;
51286;SDS011;37364;46.974;18.916;2023-06-14T11:17:00;1999.90;;;999.90;;
51286;SDS011;37364;46.974;18.916;2023-06-14T11:19:30;1999.90;;;999.90;;
51286;SDS011;37364;46.974;18.916;2023-06-14T11:22:01;1999.90;;;999.90;;
51286;SDS011;37364;46.974;18.916;2023-06-14T11:24:32;1999.90;;;999.90;;
51286;SDS011;37364;46.974;18.916;2023-06-14T11:27:07;1999.90;;;999.90;;
51286;SDS011;37364;46.974;18.916;2023-06-14T11:29:38;1999.90;;;999.90;;
51286;SDS011;37364;46.974;18.916;2023-06-14T11:32:10;1999.90;;;999.90;;
51286;SDS011;37364;46.974;18.916;2023-06-14T11:34:40;1999.90;;;999.90;;
51286;SDS011;37364;46.974;18.916;2023-06-14T11:37:11;1999.90;;;999.90;;
51286;SDS011;37364;46.974;18.916;2023-06-14T11:39:44;1999.90;;;999.90;;
51286;SDS011;37364;46.974;18.916;2023-06-14T11:42:19;1999.90;;;999.90;;
51286;SDS011;37364;46.974;18.916;2023-06-14T11:44:49;1999.90;;;999.90;;
51286;SDS011;37364;46.974;18.916;2023-06-14T11:47:36;1999.90;;;999.90;;
51286;SDS011;37364;46.974;18.916;2023-06-14T11:50:07;1999.90;;;999.90;;
51286;SDS011;37364;46.974;18.916;2023-06-14T11:52:43;1999.90;;;999.90;;
51286;SDS011;37364;46.974;18.916;2023-06-14T11:55:14;1999.90;;;999.90;;
51286;SDS011;37364;46.974;18.916;2023-06-14T11:57:48;1999.90;;;999.90;;
51286;SDS011;37364;46.974;18.916;2023-06-14T12:00:19;1999.90;;;999.90;;
51286;SDS011;37364;46.974;18.916;2023-06-14T12:02:56;1999.90;;;999.90;;
51286;SDS011;37364;46.974;18.916;2023-06-14T12:05:28;1999.90;;;999.90;;
51286;SDS011;37364;46.974;18.916;2023-06-14T12:08:01;1999.90;;;999.90;;
51286;SDS011;37364;46.974;18.916;2023-06-14T12:10:39;1999.90;;;999.90;;
51286;SDS011;37364;46.974;18.916;2023-06-14T12:13:13;1999.90;;;999.90;;
51286;SDS011;37364;46.974;18.916;2023-06-14T12:15:53;1999.90;;;999.90;;
51286;SDS011;37364;46.974;18.916;2023-06-14T12:18:31;1999.90;;;999.90;;
51286;SDS011;37364;46.974;18.916;2023-06-14T12:21:03;1999.90;;;999.90;;
51286;SDS011;37364;46.974;18.916;2023-06-14T12:23:43;1999.90;;;999.90;;
51286;SDS011;37364;46.974;18.916;2023-06-14T12:26:15;1999.90;;;999.90;;
51286;SDS011;37364;46.974;18.916;2023-06-14T12:28:49;1999.90;;;999.90;;
51286;SDS011;37364;46.974;18.916;2023-06-14T12:31:19;1999.90;;;999.90;;
51286;SDS011;37364;46.974;18.916;2023-06-14T12:33:49;1999.90;;;999.90;;
51286;SDS011;37364;46.974;18.916;2023-06-14T12:36:22;1999.90;;;999.90;;
51286;SDS011;37364;46.974;18.916;2023-06-14T12:38:52;1999.90;;;999.90;;
51286;SDS011;37364;46.974;18.916;2023-06-14T12:41:22;1999.90;;;999.90;;
51286;SDS011;37364;46.974;18.916;2023-06-14T12:43:56;1999.90;;;999.90;;
51286;SDS011;37364;46.974;18.916;2023-06-14T12:46:31;1999.90;;;999.90;;
51286;SDS011;37364;46.974;18.916;2023-06-14T12:49:02;1999.90;;;999.90;;
51286;SDS011;37364;46.974;18.916;2023-06-14T12:51:32;1999.90;;;999.90;;
51286;SDS011;37364;46.974;18.916;2023-06-14T12:54:02;1999.90;;;999.90;;
51286;SDS011;37364;46.974;18.916;2023-06-14T12:59:08;1999.90;;;999.90;;
51286;SDS011;37364;46.974;18.916;2023-06-14T13:01:39;1999.90;;;999.90;;
51286;SDS011;37364;46.974;18.916;2023-06-14T13:04:09;1999.90;;;999.90;;
51286;SDS011;37364;46.974;18.916;2023-06-14T13:06:44;1999.90;;;999.90;;
51286;SDS011;37364;46.974;18.916;2023-06-14T13:09:16;1999.90;;;999.90;;
51286;SDS011;37364;46.974;18.916;2023-06-14T13:11:47;1999.90;;;999.90;;
51286;SDS011;37364;46.974;18.916;2023-06-14T13:14:21;1999.90;;;999.90;;
51286;SDS011;37364;46.974;18.916;2023-06-14T13:17:00;1999.90;;;999.90;;
51286;SDS011;37364;46.974;18.916;2023-06-14T13:19:31;1999.90;;;999.90;;
51286;SDS011;37364;46.974;18.916;2023-06-14T13:22:04;1999.90;;;999.90;;
51286;SDS011;37364;46.974;18.916;2023-06-14T13:24:41;1999.90;;;999.90;;
51286;SDS011;37364;46.974;18.916;2023-06-14T13:27:11;1999.90;;;999.90;;
51286;SDS011;37364;46.974;18.916;2023-06-14T13:29:51;1999.90;;;999.90;;
51286;SDS011;37364;46.974;18.916;2023-06-14T13:32:27;1999.90;;;999.90;;
51286;SDS011;37364;46.974;18.916;2023-06-14T13:35:01;1999.90;;;999.90;;
51286;SDS011;37364;46.974;18.916;2023-06-14T13:37:35;1999.90;;;999.90;;
51286;SDS011;37364;46.974;18.916;2023-06-14T13:40:09;1999.90;;;999.90;;
51286;SDS011;37364;46.974;18.916;2023-06-14T13:42:42;1999.90;;;999.90;;
51286;SDS011;37364;46.974;18.916;2023-06-14T13:45:16;1999.90;;;999.90;;
51286;SDS011;37364;46.974;18.916;2023-06-14T13:47:51;1999.90;;;999.90;;
51286;SDS011;37364;46.974;18.916;2023-06-14T13:50:29;1999.90;;;999.90;;
51286;SDS011;37364;46.974;18.916;2023-06-14T13:53:04;1999.90;;;999.90;;
51286;SDS011;37364;46.974;18.916;2023-06-14T13:55:38;1999.90;;;999.90;;
51286;SDS011;37364;46.974;18.916;2023-06-14T13:58:12;1999.90;;;999.90;;
51286;SDS011;37364;46.974;18.916;2023-06-14T14:00:54;1999.90;;;999.90;;
51286;SDS011;37364;46.974;18.916;2023-06-14T14:03:26;1999.90;;;999.90;;
51286;SDS011;37364;46.974;18.916;2023-06-14T14:05:57;1999.90;;;999.90;;
51286;SDS011;37364;46.974;18.916;2023-06-14T14:08:27;1999.90;;;999.90;;
51286;SDS011;37364;46.974;18.916;2023-06-14T14:10:58;1999.90;;;999.90;;
51286;SDS011;37364;46.974;18.916;2023-06-14T14:13:28;1999.90;;;999.90;;
51286;SDS011;37364;46.974;18.916;2023-06-14T14:16:01;1999.90;;;999.90;;
51286;SDS011;37364;46.974;18.916;2023-06-14T14:18:32;1999.90;;;999.90;;
51286;SDS011;37364;46.974;18.916;2023-06-14T14:21:03;1999.90;;;999.90;;
51286;SDS011;37364;46.974;18.916;2023-06-14T14:23:33;1999.90;;;999.90;;
51286;SDS011;37364;46.974;18.916;2023-06-14T14:26:06;1999.90;;;999.90;;
51286;SDS011;37364;46.974;18.916;2023-06-14T14:28:37;1999.90;;;999.90;;
51286;SDS011;37364;46.974;18.916;2023-06-14T14:31:09;1999.90;;;999.90;;
51286;SDS011;37364;46.974;18.916;2023-06-14T14:36:12;1999.90;;;999.90;;